sensor_id;sensor_type;location;lat;lon;timestamp;pressure;altitude;pressure_sealevel;temperature;humidity
4586;BME280;2305;50.118;8.952;2023-07-31T00:01:59;100311.72;;;20.34;100.00
4586;BME280;2305;50.118;8.952;2023-07-31T00:04:28;100305.81;;;20.39;100.00
4586;BME280;2305;50.118;8.952;2023-07-31T00:07:00;100300.91;;;20.42;100.00
4586;BME280;2305;50.118;8.952;2023-07-31T00:09:31;100311.06;;;20.47;100.00
4586;BME280;2305;50.118;8.952;2023-07-31T00:11:59;100310.06;;;20.33;100.00
4586;BME280;2305;50.118;8.952;2023-07-31T00:14:29;100319.50;;;20.29;100.00
4586;BME280;2305;50.118;8.952;2023-07-31T00:16:58;100306.81;;;20.38;100.00
4586;BME280;2305;50.118;8.952;2023-07-31T00:19:26;100305.09;;;20.30;100.00
4586;BME280;2305;50.118;8.952;2023-07-31T00:21:57;100307.97;;;20.14;100.00
4586;BME280;2305;50.118;8.952;2023-07-31T00:24:28;100306.50;;;20.12;100.00
4586;BME280;2305;50.118;8.952;2023-07-31T00:26:57;100301.72;;;20.07;100.00
4586;BME280;2305;50.118;8.952;2023-07-31T00:29:29;100312.22;;;20.09;100.00
4586;BME280;2305;50.118;8.952;2023-07-31T00:31:57;100299.38;;;20.04;100.00
4586;BME280;2305;50.118;8.952;2023-07-31T00:34:26;100298.66;;;20.10;100.00
4586;BME280;2305;50.118;8.952;2023-07-31T00:36:55;100303.44;;;20.15;100.00
4586;BME280;2305;50.118;8.952;2023-07-31T00:39:24;100305.03;;;20.09;100.00
4586;BME280;2305;50.118;8.952;2023-07-31T00:41:54;100298.66;;;20.10;100.00
4586;BME280;2305;50.118;8.952;2023-07-31T00:44:23;100289.78;;;20.24;100.00
4586;BME280;2305;50.118;8.952;2023-07-31T00:46:56;100300.19;;;20.19;100.00
4586;BME280;2305;50.118;8.952;2023-07-31T00:49:26;100298.94;;;20.15;100.00
4586;BME280;2305;50.118;8.952;2023-07-31T00:51:55;100293.19;;;20.18;100.00
4586;BME280;2305;50.118;8.952;2023-07-31T00:54:25;100279.09;;;20.10;100.00
4586;BME280;2305;50.118;8.952;2023-07-31T00:57:07;100287.00;;;20.03;100.00
4586;BME280;2305;50.118;8.952;2023-07-31T00:59:39;100280.00;;;20.02;100.00
4586;BME280;2305;50.118;8.952;2023-07-31T01:02:10;100277.63;;;20.07;100.00
4586;BME280;2305;50.118;8.952;2023-07-31T01:04:44;100278.13;;;20.03;100.00
4586;BME280;2305;50.118;8.952;2023-07-31T01:07:40;100270.25;;;20.09;100.00
4586;BME280;2305;50.118;8.952;2023-07-31T01:10:16;100280.31;;;20.07;100.00
4586;BME280;2305;50.118;8.952;2023-07-31T01:12:51;100273.56;;;19.97;100.00
4586;BME280;2305;50.118;8.952;2023-07-31T01:15:24;100276.47;;;20.02;100.00
4586;BME280;2305;50.118;8.952;2023-07-31T01:17:53;100282.97;;;19.93;100.00
4586;BME280;2305;50.118;8.952;2023-07-31T01:20:24;100275.84;;;19.85;100.00
4586;BME280;2305;50.118;8.952;2023-07-31T01:23:41;100269.41;;;19.94;100.00
4586;BME280;2305;50.118;8.952;2023-07-31T01:26:33;100258.78;;;20.01;100.00
4586;BME280;2305;50.118;8.952;2023-07-31T01:29:08;100256.84;;;19.95;100.00
4586;BME280;2305;50.118;8.952;2023-07-31T01:31:39;100254.44;;;20.00;100.00
4586;BME280;2305;50.118;8.952;2023-07-31T01:34:13;100265.47;;;20.05;100.00
4586;BME280;2305;50.118;8.952;2023-07-31T01:36:46;100259.91;;;19.92;100.00
4586;BME280;2305;50.118;8.952;2023-07-31T01:39:16;100255.75;;;19.89;100.00
4586;BME280;2305;50.118;8.952;2023-07-31T01:41:47;100263.59;;;20.05;100.00
4586;BME280;2305;50.118;8.952;2023-07-31T01:44:20;100264.59;;;20.04;100.00
4586;BME280;2305;50.118;8.952;2023-07-31T01:46:50;100265.16;;;20.00;100.00
4586;BME280;2305;50.118;8.952;2023-07-31T01:49:18;100251.03;;;19.91;100.00
4586;BME280;2305;50.118;8.952;2023-07-31T01:51:50;100236.63;;;19.92;100.00
4586;BME280;2305;50.118;8.952;2023-07-31T01:54:18;100241.00;;;20.08;100.00
4586;BME280;2305;50.118;8.952;2023-07-31T01:56:49;100237.69;;;20.06;100.00
4586;BME280;2305;50.118;8.952;2023-07-31T01:59:22;100237.13;;;20.10;100.00
4586;BME280;2305;50.118;8.952;2023-07-31T02:01:53;100234.16;;;20.05;100.00
4586;BME280;2305;50.118;8.952;2023-07-31T02:04:25;100233.69;;;20.02;100.00
4586;BME280;2305;50.118;8.952;2023-07-31T02:06:55;100226.03;;;19.99;100.00
4586;BME280;2305;50.118;8.952;2023-07-31T02:09:24;100226.56;;;20.23;100.00
4586;BME280;2305;50.118;8.952;2023-07-31T02:11:56;100229.59;;;20.20;100.00
4586;BME280;2305;50.118;8.952;2023-07-31T02:14:26;100225.97;;;20.07;100.00
4586;BME280;2305;50.118;8.952;2023-07-31T02:16:54;100219.09;;;20.04;100.00
4586;BME280;2305;50.118;8.952;2023-07-31T02:19:34;100218.81;;;19.99;100.00
4586;BME280;2305;50.118;8.952;2023-07-31T02:22:06;100220.31;;;20.02;100.00
4586;BME280;2305;50.118;8.952;2023-07-31T02:24:34;100217.63;;;20.16;100.00
4586;BME280;2305;50.118;8.952;2023-07-31T02:27:05;100214.97;;;20.16;100.00
4586;BME280;2305;50.118;8.952;2023-07-31T02:29:37;100215.25;;;20.07;100.00
4586;BME280;2305;50.118;8.952;2023-07-31T02:32:09;100218.16;;;20.26;100.00
4586;BME280;2305;50.118;8.952;2023-07-31T02:34:40;100214.09;;;20.30;100.00
4586;BME280;2305;50.118;8.952;2023-07-31T02:37:13;100221.41;;;20.22;100.00
4586;BME280;2305;50.118;8.952;2023-07-31T02:39:43;100229.59;;;20.20;100.00
4586;BME280;2305;50.118;8.952;2023-07-31T02:42:14;100227.25;;;20.11;100.00
4586;BME280;2305;50.118;8.952;2023-07-31T02:44:45;100222.75;;;20.32;100.00
4586;BME280;2305;50.118;8.952;2023-07-31T02:47:14;100214.56;;;20.19;100.00
4586;BME280;2305;50.118;8.952;2023-07-31T02:49:44;100217.19;;;20.13;100.00
4586;BME280;2305;50.118;8.952;2023-07-31T02:52:16;100215.53;;;20.12;100.00
4586;BME280;2305;50.118;8.952;2023-07-31T02:54:45;100220.31;;;20.16;100.00
4586;BME280;2305;50.118;8.952;2023-07-31T02:57:16;100218.09;;;20.20;100.00
4586;BME280;2305;50.118;8.952;2023-07-31T02:59:46;100218.97;;;20.06;100.00
4586;BME280;2305;50.118;8.952;2023-07-31T03:02:17;100225.56;;;20.10;100.00
4586;BME280;2305;50.118;8.952;2023-07-31T03:04:48;100223.00;;;20.16;100.00
4586;BME280;2305;50.118;8.952;2023-07-31T03:07:18;100224.53;;;20.25;100.00
4586;BME280;2305;50.118;8.952;2023-07-31T03:09:48;100223.34;;;20.13;100.00
4586;BME280;2305;50.118;8.952;2023-07-31T03:12:19;100218.47;;;20.02;100.00
4586;BME280;2305;50.118;8.952;2023-07-31T03:14:48;100232.66;;;20.03;100.00
4586;BME280;2305;50.118;8.952;2023-07-31T03:17:17;100231.22;;;20.00;100.00
4586;BME280;2305;50.118;8.952;2023-07-31T03:19:48;100231.13;;;20.08;100.00
4586;BME280;2305;50.118;8.952;2023-07-31T03:22:18;100226.03;;;20.13;100.00
4586;BME280;2305;50.118;8.952;2023-07-31T03:24:45;100227.03;;;20.12;100.00
4586;BME280;2305;50.118;8.952;2023-07-31T03:27:14;100227.13;;;20.04;100.00
4586;BME280;2305;50.118;8.952;2023-07-31T03:29:46;100217.09;;;20.06;100.00
4586;BME280;2305;50.118;8.952;2023-07-31T03:32:17;100221.44;;;20.07;100.00
4586;BME280;2305;50.118;8.952;2023-07-31T03:34:49;100223.38;;;19.99;100.00
4586;BME280;2305;50.118;8.952;2023-07-31T03:37:20;100219.59;;;19.93;100.00
4586;BME280;2305;50.118;8.952;2023-07-31T03:39:52;100228.81;;;19.91;100.00
4586;BME280;2305;50.118;8.952;2023-07-31T03:42:21;100212.84;;;19.97;100.00
4586;BME280;2305;50.118;8.952;2023-07-31T03:44:54;100216.19;;;19.85;100.00
4586;BME280;2305;50.118;8.952;2023-07-31T03:47:23;100221.72;;;19.98;100.00
4586;BME280;2305;50.118;8.952;2023-07-31T03:49:53;100220.69;;;19.84;100.00
4586;BME280;2305;50.118;8.952;2023-07-31T03:52:23;100220.44;;;19.79;100.00
4586;BME280;2305;50.118;8.952;2023-07-31T03:54:55;100222.38;;;19.71;100.00
4586;BME280;2305;50.118;8.952;2023-07-31T03:57:25;100221.28;;;19.65;100.00
4586;BME280;2305;50.118;8.952;2023-07-31T03:59:54;100235.84;;;19.63;100.00
4586;BME280;2305;50.118;8.952;2023-07-31T04:02:24;100232.00;;;19.65;100.00
4586;BME280;2305;50.118;8.952;2023-07-31T04:04:54;100225.69;;;19.73;100.00
4586;BME280;2305;50.118;8.952;2023-07-31T04:07:23;100235.59;;;19.72;100.00
4586;BME280;2305;50.118;8.952;2023-07-31T04:09:55;100222.09;;;19.80;100.00
4586;BME280;2305;50.118;8.952;2023-07-31T04:12:24;100223.31;;;19.63;100.00
4586;BME280;2305;50.118;8.952;2023-07-31T04:14:55;100228.56;;;19.57;100.00
4586;BME280;2305;50.118;8.952;2023-07-31T04:17:22;100223.69;;;19.60;100.00
4586;BME280;2305;50.118;8.952;2023-07-31T04:19:55;100218.16;;;19.62;100.00
4586;BME280;2305;50.118;8.952;2023-07-31T04:22:24;100210.78;;;19.64;100.00
4586;BME280;2305;50.118;8.952;2023-07-31T04:24:57;100221.47;;;19.64;100.00
4586;BME280;2305;50.118;8.952;2023-07-31T04:27:27;100222.56;;;19.69;100.00
4586;BME280;2305;50.118;8.952;2023-07-31T04:30:01;100216.31;;;19.62;100.00
4586;BME280;2305;50.118;8.952;2023-07-31T04:32:34;100219.06;;;19.54;100.00
4586;BME280;2305;50.118;8.952;2023-07-31T04:35:05;100208.38;;;19.54;100.00
4586;BME280;2305;50.118;8.952;2023-07-31T04:37:33;100209.84;;;19.42;100.00
4586;BME280;2305;50.118;8.952;2023-07-31T04:40:05;100207.34;;;19.55;100.00
4586;BME280;2305;50.118;8.952;2023-07-31T04:42:37;100208.22;;;19.56;100.00
4586;BME280;2305;50.118;8.952;2023-07-31T04:45:12;100211.88;;;19.40;100.00
4586;BME280;2305;50.118;8.952;2023-07-31T04:47:41;100212.72;;;19.41;100.00
4586;BME280;2305;50.118;8.952;2023-07-31T04:50:10;100205.25;;;19.51;100.00
4586;BME280;2305;50.118;8.952;2023-07-31T04:52:44;100202.13;;;19.47;100.00
4586;BME280;2305;50.118;8.952;2023-07-31T04:55:13;100206.34;;;19.56;100.00
4586;BME280;2305;50.118;8.952;2023-07-31T04:57:47;100209.47;;;19.60;100.00
4586;BME280;2305;50.118;8.952;2023-07-31T05:00:19;100200.47;;;19.61;100.00
4586;BME280;2305;50.118;8.952;2023-07-31T05:02:50;100189.78;;;19.61;100.00
4586;BME280;2305;50.118;8.952;2023-07-31T05:05:21;100202.69;;;19.57;100.00
4586;BME280;2305;50.118;8.952;2023-07-31T05:08:04;100196.31;;;19.58;100.00
4586;BME280;2305;50.118;8.952;2023-07-31T05:10:37;100192.06;;;19.64;100.00
4586;BME280;2305;50.118;8.952;2023-07-31T05:13:05;100192.44;;;19.61;100.00
4586;BME280;2305;50.118;8.952;2023-07-31T05:15:35;100197.41;;;19.78;100.00
4586;BME280;2305;50.118;8.952;2023-07-31T05:18:03;100189.47;;;19.70;100.00
4586;BME280;2305;50.118;8.952;2023-07-31T05:20:36;100200.44;;;19.75;100.00
4586;BME280;2305;50.118;8.952;2023-07-31T05:23:05;100200.44;;;19.75;100.00
4586;BME280;2305;50.118;8.952;2023-07-31T05:25:34;100201.34;;;19.82;100.00
4586;BME280;2305;50.118;8.952;2023-07-31T05:28:05;100199.31;;;19.84;100.00
4586;BME280;2305;50.118;8.952;2023-07-31T05:30:36;100198.75;;;19.89;100.00
4586;BME280;2305;50.118;8.952;2023-07-31T05:33:05;100196.91;;;19.89;100.00
4586;BME280;2305;50.118;8.952;2023-07-31T05:35:35;100199.75;;;19.88;100.00
4586;BME280;2305;50.118;8.952;2023-07-31T05:38:07;100198.75;;;19.89;100.00
4586;BME280;2305;50.118;8.952;2023-07-31T05:40:40;100203.63;;;20.00;100.00
4586;BME280;2305;50.118;8.952;2023-07-31T05:43:11;100206.88;;;19.95;100.00
4586;BME280;2305;50.118;8.952;2023-07-31T05:45:43;100199.84;;;19.94;100.00
4586;BME280;2305;50.118;8.952;2023-07-31T05:48:12;100202.59;;;20.01;100.00
4586;BME280;2305;50.118;8.952;2023-07-31T05:50:44;100200.22;;;19.91;100.00
4586;BME280;2305;50.118;8.952;2023-07-31T05:53:12;100199.47;;;19.97;100.00
4586;BME280;2305;50.118;8.952;2023-07-31T05:55:42;100192.47;;;19.96;100.00
4586;BME280;2305;50.118;8.952;2023-07-31T05:58:10;100200.38;;;20.04;100.00
4586;BME280;2305;50.118;8.952;2023-07-31T06:00:40;100194.94;;;20.12;100.00
4586;BME280;2305;50.118;8.952;2023-07-31T06:03:11;100184.13;;;20.20;100.00
4586;BME280;2305;50.118;8.952;2023-07-31T06:05:40;100185.41;;;20.24;100.00
4586;BME280;2305;50.118;8.952;2023-07-31T06:08:08;100186.44;;;20.23;100.00
4586;BME280;2305;50.118;8.952;2023-07-31T06:10:40;100184.06;;;20.35;100.00
4586;BME280;2305;50.118;8.952;2023-07-31T06:13:10;100186.63;;;20.43;100.00
4586;BME280;2305;50.118;8.952;2023-07-31T06:15:39;100183.50;;;20.39;100.00
4586;BME280;2305;50.118;8.952;2023-07-31T06:18:15;100180.00;;;20.39;100.00
4586;BME280;2305;50.118;8.952;2023-07-31T06:20:44;100185.03;;;20.48;100.00
4586;BME280;2305;50.118;8.952;2023-07-31T06:23:14;100190.63;;;20.53;100.00
4586;BME280;2305;50.118;8.952;2023-07-31T06:25:48;100181.97;;;20.51;100.00
4586;BME280;2305;50.118;8.952;2023-07-31T06:28:17;100179.88;;;20.68;100.00
4586;BME280;2305;50.118;8.952;2023-07-31T06:30:46;100173.22;;;20.64;100.00
4586;BME280;2305;50.118;8.952;2023-07-31T06:33:20;100172.34;;;20.57;100.00
4586;BME280;2305;50.118;8.952;2023-07-31T06:35:48;100178.31;;;20.59;100.00
4586;BME280;2305;50.118;8.952;2023-07-31T06:38:22;100188.19;;;20.79;100.00
4586;BME280;2305;50.118;8.952;2023-07-31T06:40:54;100185.31;;;20.81;100.00
4586;BME280;2305;50.118;8.952;2023-07-31T06:43:24;100189.75;;;20.88;100.00
4586;BME280;2305;50.118;8.952;2023-07-31T06:45:55;100193.69;;;20.92;100.00
4586;BME280;2305;50.118;8.952;2023-07-31T06:48:30;100187.09;;;20.95;100.00
4586;BME280;2305;50.118;8.952;2023-07-31T06:51:02;100183.22;;;20.76;100.00
4586;BME280;2305;50.118;8.952;2023-07-31T06:53:32;100188.13;;;20.73;100.00
4586;BME280;2305;50.118;8.952;2023-07-31T06:56:00;100187.81;;;20.82;100.00
4586;BME280;2305;50.118;8.952;2023-07-31T06:58:33;100188.97;;;20.94;100.00
4586;BME280;2305;50.118;8.952;2023-07-31T07:01:05;100190.44;;;20.97;100.00
4586;BME280;2305;50.118;8.952;2023-07-31T07:03:41;100185.41;;;20.87;100.00
4586;BME280;2305;50.118;8.952;2023-07-31T07:06:10;100183.34;;;20.89;100.00
4586;BME280;2305;50.118;8.952;2023-07-31T07:08:41;100193.69;;;20.92;100.00
4586;BME280;2305;50.118;8.952;2023-07-31T07:11:10;100180.78;;;21.02;100.00
4586;BME280;2305;50.118;8.952;2023-07-31T07:13:38;100183.56;;;21.15;100.00
4586;BME280;2305;50.118;8.952;2023-07-31T07:16:10;100175.25;;;21.04;100.00
4586;BME280;2305;50.118;8.952;2023-07-31T07:18:41;100176.69;;;21.06;100.00
4586;BME280;2305;50.118;8.952;2023-07-31T07:21:29;100170.59;;;21.19;100.00
4586;BME280;2305;50.118;8.952;2023-07-31T07:23:58;100174.16;;;21.26;100.00
4586;BME280;2305;50.118;8.952;2023-07-31T07:26:29;100165.25;;;21.25;100.00
4586;BME280;2305;50.118;8.952;2023-07-31T07:29:04;100162.00;;;21.30;100.00
4586;BME280;2305;50.118;8.952;2023-07-31T07:31:35;100165.59;;;21.43;100.00
4586;BME280;2305;50.118;8.952;2023-07-31T07:34:05;100164.75;;;21.43;100.00
4586;BME280;2305;50.118;8.952;2023-07-31T07:36:33;100142.06;;;21.39;100.00
4586;BME280;2305;50.118;8.952;2023-07-31T07:39:04;100146.81;;;21.43;100.00
4586;BME280;2305;50.118;8.952;2023-07-31T07:41:35;100159.00;;;21.46;100.00
4586;BME280;2305;50.118;8.952;2023-07-31T07:44:04;100141.91;;;21.53;100.00
4586;BME280;2305;50.118;8.952;2023-07-31T07:46:35;100143.78;;;21.53;100.00
4586;BME280;2305;50.118;8.952;2023-07-31T07:49:07;100145.22;;;21.55;100.00
4586;BME280;2305;50.118;8.952;2023-07-31T07:51:36;100145.06;;;21.63;100.00
4586;BME280;2305;50.118;8.952;2023-07-31T07:54:04;100152.28;;;21.63;100.00
4586;BME280;2305;50.118;8.952;2023-07-31T07:56:34;100148.97;;;21.61;100.00
4586;BME280;2305;50.118;8.952;2023-07-31T07:59:04;100140.50;;;21.57;100.00
4586;BME280;2305;50.118;8.952;2023-07-31T08:01:33;100138.09;;;21.69;100.00
4586;BME280;2305;50.118;8.952;2023-07-31T08:04:02;100147.81;;;21.76;100.00
4586;BME280;2305;50.118;8.952;2023-07-31T08:06:34;100145.56;;;21.80;100.00
4586;BME280;2305;50.118;8.952;2023-07-31T08:09:02;100136.69;;;21.86;100.00
4586;BME280;2305;50.118;8.952;2023-07-31T08:11:35;100136.28;;;21.82;100.00
4586;BME280;2305;50.118;8.952;2023-07-31T08:14:05;100143.53;;;21.88;100.00
4586;BME280;2305;50.118;8.952;2023-07-31T08:16:35;100138.16;;;21.88;100.00
4586;BME280;2305;50.118;8.952;2023-07-31T08:19:07;100135.06;;;21.91;100.00
4586;BME280;2305;50.118;8.952;2023-07-31T08:21:39;100142.47;;;21.83;100.00
4586;BME280;2305;50.118;8.952;2023-07-31T08:24:07;100129.25;;;21.81;100.00
4586;BME280;2305;50.118;8.952;2023-07-31T08:26:41;100114.00;;;21.88;100.00
4586;BME280;2305;50.118;8.952;2023-07-31T08:29:10;100122.84;;;21.82;100.00
4586;BME280;2305;50.118;8.952;2023-07-31T08:31:41;100134.00;;;21.86;100.00
4586;BME280;2305;50.118;8.952;2023-07-31T08:34:09;100119.59;;;21.93;100.00
4586;BME280;2305;50.118;8.952;2023-07-31T08:36:39;100107.00;;;21.94;100.00
4586;BME280;2305;50.118;8.952;2023-07-31T08:39:09;100122.06;;;21.95;100.00
4586;BME280;2305;50.118;8.952;2023-07-31T08:41:41;100111.75;;;21.98;100.00
4586;BME280;2305;50.118;8.952;2023-07-31T08:44:10;100128.88;;;21.97;100.00
4586;BME280;2305;50.118;8.952;2023-07-31T08:46:42;100133.44;;;22.03;100.00
4586;BME280;2305;50.118;8.952;2023-07-31T08:49:11;100115.28;;;21.99;100.00
4586;BME280;2305;50.118;8.952;2023-07-31T08:51:42;100103.09;;;21.90;100.00
4586;BME280;2305;50.118;8.952;2023-07-31T08:54:11;100103.69;;;21.98;100.00
4586;BME280;2305;50.118;8.952;2023-07-31T08:56:40;100119.22;;;22.16;100.00
4586;BME280;2305;50.118;8.952;2023-07-31T08:59:15;100105.41;;;22.19;100.00
4586;BME280;2305;50.118;8.952;2023-07-31T09:01:50;100108.13;;;22.45;100.00
4586;BME280;2305;50.118;8.952;2023-07-31T09:04:24;100112.47;;;22.59;100.00
4586;BME280;2305;50.118;8.952;2023-07-31T09:07:00;100110.41;;;22.61;100.00
4586;BME280;2305;50.118;8.952;2023-07-31T09:09:30;100111.00;;;22.69;100.00
4586;BME280;2305;50.118;8.952;2023-07-31T09:12:01;100109.16;;;22.70;100.00
4586;BME280;2305;50.118;8.952;2023-07-31T09:14:32;100105.66;;;22.76;100.00
4586;BME280;2305;50.118;8.952;2023-07-31T09:17:07;100099.63;;;22.93;100.00
4586;BME280;2305;50.118;8.952;2023-07-31T09:19:38;100101.09;;;22.96;100.00
4586;BME280;2305;50.118;8.952;2023-07-31T09:22:13;100102.47;;;23.11;100.00
4586;BME280;2305;50.118;8.952;2023-07-31T09:24:43;100109.72;;;23.17;100.00
4586;BME280;2305;50.118;8.952;2023-07-31T09:27:11;100101.06;;;23.15;100.00
4586;BME280;2305;50.118;8.952;2023-07-31T09:29:40;100110.94;;;23.15;100.00
4586;BME280;2305;50.118;8.952;2023-07-31T09:32:15;100101.66;;;23.17;100.00
4586;BME280;2305;50.118;8.952;2023-07-31T09:34:44;100104.34;;;23.11;100.00
4586;BME280;2305;50.118;8.952;2023-07-31T09:37:15;100087.38;;;23.10;100.00
4586;BME280;2305;50.118;8.952;2023-07-31T09:39:48;100089.44;;;23.15;100.00
4586;BME280;2305;50.118;8.952;2023-07-31T09:42:25;100092.19;;;22.95;100.00
4586;BME280;2305;50.118;8.952;2023-07-31T09:45:06;100089.94;;;22.92;100.00
4586;BME280;2305;50.118;8.952;2023-07-31T09:47:35;100086.38;;;23.05;100.00
4586;BME280;2305;50.118;8.952;2023-07-31T09:50:07;100090.91;;;23.17;100.00
4586;BME280;2305;50.118;8.952;2023-07-31T09:52:42;100097.94;;;23.05;100.00
4586;BME280;2305;50.118;8.952;2023-07-31T09:55:13;100089.91;;;22.99;100.00
4586;BME280;2305;50.118;8.952;2023-07-31T09:57:45;100087.03;;;22.87;100.00
4586;BME280;2305;50.118;8.952;2023-07-31T10:00:18;100083.91;;;22.90;100.00
4586;BME280;2305;50.118;8.952;2023-07-31T10:02:50;100084.56;;;22.92;100.00
4586;BME280;2305;50.118;8.952;2023-07-31T10:05:20;100078.75;;;22.95;100.00
4586;BME280;2305;50.118;8.952;2023-07-31T10:07:54;100067.78;;;22.90;100.00
4586;BME280;2305;50.118;8.952;2023-07-31T10:10:25;100064.50;;;22.88;100.00
4586;BME280;2305;50.118;8.952;2023-07-31T10:13:01;100056.41;;;23.01;100.00
4586;BME280;2305;50.118;8.952;2023-07-31T10:15:34;100053.47;;;23.09;100.00
4586;BME280;2305;50.118;8.952;2023-07-31T10:18:07;100046.94;;;22.79;100.00
4586;BME280;2305;50.118;8.952;2023-07-31T10:20:40;100050.25;;;22.81;100.00
4586;BME280;2305;50.118;8.952;2023-07-31T10:23:11;100041.97;;;22.76;100.00
4586;BME280;2305;50.118;8.952;2023-07-31T10:25:48;100033.09;;;22.89;100.00
4586;BME280;2305;50.118;8.952;2023-07-31T10:28:18;100033.84;;;23.15;100.00
4586;BME280;2305;50.118;8.952;2023-07-31T10:30:51;100024.25;;;23.32;100.00
4586;BME280;2305;50.118;8.952;2023-07-31T10:33:22;100031.22;;;23.46;100.00
4586;BME280;2305;50.118;8.952;2023-07-31T10:35:50;100030.41;;;23.39;100.00
4586;BME280;2305;50.118;8.952;2023-07-31T10:38:40;100037.56;;;23.58;100.00
4586;BME280;2305;50.118;8.952;2023-07-31T10:41:09;100030.28;;;23.65;100.00
4586;BME280;2305;50.118;8.952;2023-07-31T10:43:39;100022.75;;;23.80;100.00
4586;BME280;2305;50.118;8.952;2023-07-31T10:46:08;100024.59;;;23.86;100.00
4586;BME280;2305;50.118;8.952;2023-07-31T10:48:37;100011.75;;;23.88;100.00
4586;BME280;2305;50.118;8.952;2023-07-31T10:51:10;100004.34;;;23.77;100.00
4586;BME280;2305;50.118;8.952;2023-07-31T10:53:45;100012.44;;;23.77;100.00
4586;BME280;2305;50.118;8.952;2023-07-31T10:56:15;100010.44;;;23.97;100.00
4586;BME280;2305;50.118;8.952;2023-07-31T10:59:00;100006.47;;;24.24;100.00
4586;BME280;2305;50.118;8.952;2023-07-31T11:01:52;99996.56;;;24.25;100.00
4586;BME280;2305;50.118;8.952;2023-07-31T11:04:22;100006.19;;;24.08;100.00
4586;BME280;2305;50.118;8.952;2023-07-31T11:06:56;100001.06;;;24.06;100.00
4586;BME280;2305;50.118;8.952;2023-07-31T11:09:29;99989.91;;;24.03;100.00
4586;BME280;2305;50.118;8.952;2023-07-31T11:12:01;99998.78;;;24.03;100.00
4586;BME280;2305;50.118;8.952;2023-07-31T11:14:32;99981.72;;;23.85;100.00
4586;BME280;2305;50.118;8.952;2023-07-31T11:17:06;99983.13;;;23.94;100.00
4586;BME280;2305;50.118;8.952;2023-07-31T11:19:37;99979.94;;;24.27;100.00
4586;BME280;2305;50.118;8.952;2023-07-31T11:22:07;99983.28;;;24.47;100.00
4586;BME280;2305;50.118;8.952;2023-07-31T11:24:40;99972.94;;;24.44;100.00
4586;BME280;2305;50.118;8.952;2023-07-31T11:27:10;99978.72;;;24.48;100.00
4586;BME280;2305;50.118;8.952;2023-07-31T11:29:38;99972.19;;;24.62;100.00
4586;BME280;2305;50.118;8.952;2023-07-31T11:32:15;99987.97;;;24.34;100.00
4586;BME280;2305;50.118;8.952;2023-07-31T11:34:53;99979.91;;;24.52;100.00
4586;BME280;2305;50.118;8.952;2023-07-31T11:37:23;99978.38;;;24.62;100.00
4586;BME280;2305;50.118;8.952;2023-07-31T11:40:02;99979.34;;;24.68;100.00
4586;BME280;2305;50.118;8.952;2023-07-31T11:42:33;99967.00;;;24.78;100.00
4586;BME280;2305;50.118;8.952;2023-07-31T11:45:03;99978.59;;;24.79;100.00
4586;BME280;2305;50.118;8.952;2023-07-31T11:47:33;99977.19;;;24.58;100.00
4586;BME280;2305;50.118;8.952;2023-07-31T11:50:04;99962.88;;;24.58;100.00
4586;BME280;2305;50.118;8.952;2023-07-31T11:52:37;99951.50;;;24.74;100.00
4586;BME280;2305;50.118;8.952;2023-07-31T11:55:08;99959.28;;;24.82;100.00
4586;BME280;2305;50.118;8.952;2023-07-31T11:57:39;99966.53;;;24.63;100.00
4586;BME280;2305;50.118;8.952;2023-07-31T12:00:12;99949.00;;;24.54;100.00
4586;BME280;2305;50.118;8.952;2023-07-31T12:02:45;99946.72;;;24.58;100.00
4586;BME280;2305;50.118;8.952;2023-07-31T12:05:14;99949.09;;;24.66;100.00
4586;BME280;2305;50.118;8.952;2023-07-31T12:07:49;99954.59;;;24.53;100.00
4586;BME280;2305;50.118;8.952;2023-07-31T12:10:28;99947.53;;;24.58;100.00
4586;BME280;2305;50.118;8.952;2023-07-31T12:13:01;99946.94;;;24.56;100.00
4586;BME280;2305;50.118;8.952;2023-07-31T12:15:35;99946.50;;;24.53;100.00
4586;BME280;2305;50.118;8.952;2023-07-31T12:18:05;99937.19;;;24.55;100.00
4586;BME280;2305;50.118;8.952;2023-07-31T12:20:34;99963.06;;;24.38;100.00
4586;BME280;2305;50.118;8.952;2023-07-31T12:23:02;99941.72;;;24.37;100.00
4586;BME280;2305;50.118;8.952;2023-07-31T12:25:33;99936.78;;;24.34;100.00
4586;BME280;2305;50.118;8.952;2023-07-31T12:28:06;99954.59;;;24.35;100.00
4586;BME280;2305;50.118;8.952;2023-07-31T12:30:40;99938.34;;;24.41;100.00
4586;BME280;2305;50.118;8.952;2023-07-31T12:33:14;99954.28;;;24.67;100.00
4586;BME280;2305;50.118;8.952;2023-07-31T12:35:45;99938.34;;;24.84;100.00
4586;BME280;2305;50.118;8.952;2023-07-31T12:38:13;99925.97;;;24.94;100.00
4586;BME280;2305;50.118;8.952;2023-07-31T12:40:45;99938.91;;;24.86;100.00
4586;BME280;2305;50.118;8.952;2023-07-31T12:43:19;99939.03;;;24.19;100.00
4586;BME280;2305;50.118;8.952;2023-07-31T12:45:49;99942.59;;;24.13;100.00
4586;BME280;2305;50.118;8.952;2023-07-31T12:48:19;99943.31;;;24.02;100.00
4586;BME280;2305;50.118;8.952;2023-07-31T12:50:47;99921.25;;;24.12;100.00
4586;BME280;2305;50.118;8.952;2023-07-31T12:53:19;99909.41;;;24.19;100.00
4586;BME280;2305;50.118;8.952;2023-07-31T12:55:50;99900.19;;;24.09;100.00
4586;BME280;2305;50.118;8.952;2023-07-31T12:58:18;99902.13;;;24.20;100.00
4586;BME280;2305;50.118;8.952;2023-07-31T13:00:48;99899.50;;;24.31;100.00
4586;BME280;2305;50.118;8.952;2023-07-31T13:03:19;99888.97;;;24.30;100.00
4586;BME280;2305;50.118;8.952;2023-07-31T13:05:50;99899.09;;;24.34;100.00
4586;BME280;2305;50.118;8.952;2023-07-31T13:08:19;99898.09;;;24.46;100.00
4586;BME280;2305;50.118;8.952;2023-07-31T13:10:50;99878.44;;;24.64;100.00
4586;BME280;2305;50.118;8.952;2023-07-31T13:13:22;99878.44;;;24.64;100.00
4586;BME280;2305;50.118;8.952;2023-07-31T13:15:51;99865.72;;;24.71;100.00
4586;BME280;2305;50.118;8.952;2023-07-31T13:18:19;99879.81;;;25.02;100.00
4586;BME280;2305;50.118;8.952;2023-07-31T13:20:48;99865.16;;;25.39;100.00
4586;BME280;2305;50.118;8.952;2023-07-31T13:23:17;99865.72;;;25.30;100.00
4586;BME280;2305;50.118;8.952;2023-07-31T13:25:45;99863.34;;;25.22;100.00